createdAt,value
2024-03-05T00:03:46.298Z,100462.56
2024-03-05T00:18:48.452Z,100456.09
2024-03-05T00:33:50.453Z,100468.44
2024-03-05T00:48:53.228Z,100469.22
2024-03-05T01:03:56.844Z,100473.09
2024-03-05T01:18:59.140Z,100472.31
2024-03-05T01:34:04.571Z,100468.47
2024-03-05T01:49:09.347Z,100466.91
2024-03-05T02:04:12.313Z,100476.16
2024-03-05T02:19:14.467Z,100479.16
2024-03-05T02:34:20.956Z,100475.31
2024-03-05T02:49:23.050Z,100464.13
2024-03-05T03:04:26.820Z,100460.72
2024-03-05T03:19:29.054Z,100457.97
2024-03-05T03:34:31.943Z,100461.38
2024-03-05T03:49:34.792Z,100447.53
2024-03-05T04:04:43.953Z,100444.50
2024-03-05T04:19:46.261Z,100445.44
2024-03-05T04:35:01.244Z,100445.53
2024-03-05T04:50:03.836Z,100444.25
2024-03-05T05:05:05.946Z,100437.84
2024-03-05T05:20:09.663Z,100446.06
2024-03-05T05:35:11.815Z,100442.25
2024-03-05T05:50:19.569Z,100449.13
2024-03-05T06:05:29.547Z,100439.09
2024-03-05T06:20:33.999Z,100431.72
2024-03-05T06:35:37.150Z,100429.41
2024-03-05T06:50:40.339Z,100409.22
2024-03-05T07:05:43.474Z,100403.66
2024-03-05T07:20:47.288Z,100382.34
2024-03-05T07:35:49.624Z,100374.31
2024-03-05T07:50:51.654Z,100372.22
2024-03-05T08:05:53.584Z,100350.34
2024-03-05T08:20:56.835Z,100349.03
2024-03-05T08:35:59.030Z,100347.38
2024-03-05T08:51:01.186Z,100344.19
2024-03-05T09:06:03.668Z,100331.28
2024-03-05T09:21:08.842Z,100328.59
2024-03-05T09:36:10.992Z,100305.91
2024-03-05T09:51:15.955Z,100301.78
2024-03-05T10:06:20.213Z,100282.44
2024-03-05T10:21:24.008Z,100265.88
2024-03-05T10:36:35.117Z,100267.34
2024-03-05T10:51:40.012Z,100236.03
2024-03-05T11:06:42.795Z,100222.22
2024-03-05T11:21:45.055Z,100220.94
2024-03-05T11:37:06.640Z,100191.81
2024-03-05T11:52:09.564Z,100203.75
2024-03-05T12:07:15.058Z,100198.19
2024-03-05T12:22:17.972Z,100184.81
2024-03-05T12:37:20.963Z,100174.69
2024-03-05T12:52:26.292Z,100167.81
2024-03-05T13:07:28.369Z,100169.16
2024-03-05T13:22:30.822Z,100158.50
2024-03-05T13:37:36.643Z,100165.13
2024-03-05T13:52:43.495Z,100153.56
2024-03-05T14:07:45.854Z,100158.53
2024-03-05T14:22:48.204Z,100154.56
2024-03-05T14:37:51.021Z,100145.31
2024-03-05T14:52:55.733Z,100146.44
2024-03-05T15:07:57.964Z,100147.22
2024-03-05T15:23:01.003Z,100160.56
2024-03-05T15:38:06.854Z,100178.13
2024-03-05T15:53:09.593Z,100176.91
2024-03-05T16:08:13.085Z,100172.94
2024-03-05T16:23:15.376Z,100167.56
2024-03-05T16:38:17.742Z,100155.69
2024-03-05T16:53:19.969Z,100150.31
2024-03-05T17:08:25.623Z,100144.84
2024-03-05T17:23:42.618Z,100163.38
2024-03-05T17:38:44.580Z,100171.97
2024-03-05T17:53:47.160Z,100186.66
2024-03-05T18:08:49.293Z,100189.63
2024-03-05T18:23:57.973Z,100202.19
2024-03-05T18:39:01.486Z,100208.38
2024-03-05T18:54:06.254Z,100217.91
2024-03-05T19:09:10.189Z,100233.16
2024-03-05T19:24:12.829Z,100225.84
2024-03-05T19:39:14.819Z,100229.38
2024-03-05T19:54:16.817Z,100239.59
2024-03-05T20:09:21.728Z,100235.34
2024-03-05T20:24:23.865Z,100243.00
2024-03-05T20:39:25.836Z,100237.59
2024-03-05T20:54:27.829Z,100222.13
2024-03-05T21:09:29.780Z,100216.19
2024-03-05T21:24:31.963Z,100230.22
2024-03-05T21:39:34.594Z,100232.53
2024-03-05T21:54:36.548Z,100233.00
2024-03-05T22:09:40.540Z,100233.56
2024-03-05T22:24:42.682Z,100244.75
2024-03-05T22:39:44.622Z,100242.44
2024-03-05T22:54:46.992Z,100230.88
2024-03-05T23:09:48.999Z,100233.63
2024-03-05T23:24:51.158Z,100251.03
2024-03-05T23:39:53.368Z,100266.50
2024-03-05T23:54:58.088Z,100260.09
